Terminal Aerodrome Forecast
Issued by NWS Green Bay, WI

Home | Current Version | Previous Version | Text Only | Print | Product List | Glossary Off
Versions: 1 2 3 4 5 6 7 8 9 10 11 12 13 14 15 16 17 18 19 20 21 22 23 24 25 26 27 28 29 30 31 32 33 34 35 36 37 38 39 40 41 42

725
FTUS43 KGRB 221127
TAFGRB
TAF
KGRB 221127Z 2212/2312 25010G17KT P6SM -SHRA BKN025 OVC035
     FM221500 25014G22KT P6SM SCT035 BKN050
      TEMPO 2222/2302 5SM -TSRA BKN025CB
     FM230200 24005KT P6SM BKN070
     FM230500 VRB03KT P6SM BKN090=

USA.gov is the U.S. government's official web portal to all federal, state and local government web resources and services.